Elortondo, Argentina
Current Conditions -  °F | °C
As of 10:00 AM on Saturday 22 Nov 2014 (Local Time) from SAAR Reporting Station
Clear Clear  
Wind Chill: 68°   Ceiling: Unl
Heat Index: 68°   Visibility: 6mi
Dew Point: 54°   Wind: 6mph
Humidity: 60%   Direction: 230°SW
Pressure: 29.97"   Gusts: NA
Location:  33.7°S, 61.62°W
Report Text: SAAR 221300Z 23005KT CAVOK 20/12 Q1015
Loading
Personal Weather Stations






























Interactive Weather Map New forecast layout! Learn more

10-Day Weather Forecast

Advertisements
Track Severe Weather on mobile